createdAt,value
2022-09-15T00:00:02.083Z,10.00
2022-09-15T00:02:36.103Z,11.60
2022-09-15T00:05:10.873Z,11.20
2022-09-15T00:07:40.908Z,12.60
2022-09-15T00:10:12.187Z,13.00
2022-09-15T00:12:41.666Z,10.40
2022-09-15T00:15:17.227Z,12.60
2022-09-15T00:17:53.138Z,8.40
2022-09-15T00:20:28.947Z,10.60
2022-09-15T00:23:00.841Z,12.00
2022-09-15T00:25:36.302Z,10.60
2022-09-15T00:28:08.362Z,10.60
2022-09-15T00:30:45.397Z,11.60
2022-09-15T00:33:17.078Z,9.60
2022-09-15T00:35:51.539Z,11.60
2022-09-15T00:38:22.887Z,10.20
2022-09-15T00:40:56.734Z,11.00
2022-09-15T00:43:46.371Z,10.25
2022-09-15T00:46:18.313Z,10.20
2022-09-15T00:49:05.221Z,10.40
2022-09-15T00:51:37.469Z,9.80
2022-09-15T00:54:13.705Z,11.00
2022-09-15T00:56:46.007Z,11.00
2022-09-15T00:59:21.344Z,11.25
2022-09-15T01:01:56.602Z,11.25
2022-09-15T01:04:26.978Z,10.25
2022-09-15T01:07:00.775Z,10.00
2022-09-15T01:09:51.917Z,11.20
2022-09-15T01:12:25.499Z,9.40
2022-09-15T01:14:54.695Z,11.60
2022-09-15T01:18:14.285Z,10.20
2022-09-15T01:20:59.616Z,10.60
2022-09-15T01:24:22.197Z,8.40
2022-09-15T01:27:00.061Z,11.00
2022-09-15T01:29:43.432Z,9.00
2022-09-15T01:32:51.669Z,10.75
2022-09-15T01:35:42.986Z,8.40
2022-09-15T01:38:39.153Z,9.40
2022-09-15T01:41:39.046Z,9.00
2022-09-15T01:44:21.568Z,9.00
2022-09-15T01:46:58.536Z,10.00
2022-09-15T01:49:51.654Z,11.75
2022-09-15T01:52:27.486Z,10.75
2022-09-15T01:55:03.594Z,10.00
2022-09-15T01:57:35.669Z,9.00
2022-09-15T02:00:08.741Z,10.50
2022-09-15T02:03:05.602Z,9.50
2022-09-15T02:05:46.299Z,9.00
2022-09-15T02:08:37.327Z,10.00
2022-09-15T02:11:26.780Z,9.75
2022-09-15T02:14:21.619Z,9.50
2022-09-15T02:16:56.456Z,11.00
2022-09-15T02:19:42.963Z,9.25
2022-09-15T02:22:34.440Z,9.00
2022-09-15T02:25:16.246Z,11.00
2022-09-15T02:27:52.151Z,11.00
2022-09-15T02:30:23.333Z,10.25
2022-09-15T02:33:04.311Z,10.50
2022-09-15T02:35:38.766Z,11.75
2022-09-15T02:38:11.783Z,8.25
2022-09-15T02:40:47.738Z,6.75
2022-09-15T02:43:20.023Z,10.50
2022-09-15T02:45:51.093Z,11.25
2022-09-15T02:48:22.350Z,10.00
2022-09-15T02:50:53.005Z,10.00
2022-09-15T02:53:26.893Z,9.00
2022-09-15T02:55:57.644Z,12.50
2022-09-15T02:58:27.439Z,10.00
2022-09-15T03:00:58.862Z,8.50
2022-09-15T03:03:33.849Z,7.75
2022-09-15T03:06:19.624Z,9.00
2022-09-15T03:09:00.160Z,10.00
2022-09-15T03:11:34.279Z,10.00
2022-09-15T03:14:13.154Z,8.00
2022-09-15T03:16:42.640Z,9.50
2022-09-15T03:19:14.368Z,8.00
2022-09-15T03:21:44.085Z,9.00
2022-09-15T03:24:16.477Z,8.50
2022-09-15T03:26:47.526Z,6.00
2022-09-15T03:29:17.797Z,8.00
2022-09-15T03:31:47.747Z,7.00
2022-09-15T03:34:18.247Z,7.00
2022-09-15T03:36:51.036Z,7.50
2022-09-15T03:39:21.670Z,8.25
2022-09-15T03:41:53.133Z,9.00
2022-09-15T03:44:24.546Z,8.00
2022-09-15T03:46:54.397Z,7.00
2022-09-15T03:49:26.347Z,7.00
2022-09-15T03:51:55.841Z,7.00
2022-09-15T03:54:26.980Z,8.50
2022-09-15T03:56:57.779Z,8.75
2022-09-15T03:59:28.462Z,7.00
2022-09-15T04:02:00.325Z,7.50
2022-09-15T04:04:30.986Z,9.00
2022-09-15T04:07:02.097Z,8.00
2022-09-15T04:09:32.132Z,6.25
2022-09-15T04:12:03.651Z,6.50
2022-09-15T04:14:36.026Z,7.50
2022-09-15T04:17:06.314Z,6.00
2022-09-15T04:19:38.747Z,7.50
2022-09-15T04:22:12.281Z,8.00
2022-09-15T04:24:50.601Z,6.75
2022-09-15T04:27:20.484Z,9.50
2022-09-15T04:29:53.188Z,6.25
2022-09-15T04:32:25.561Z,7.00
2022-09-15T04:34:55.782Z,7.75
2022-09-15T04:37:26.399Z,9.50
2022-09-15T04:39:58.259Z,8.00
2022-09-15T04:42:28.439Z,8.25
2022-09-15T04:44:58.469Z,10.50
2022-09-15T04:47:28.840Z,6.75
2022-09-15T04:50:00.258Z,8.25
2022-09-15T04:52:32.784Z,7.50
2022-09-15T04:55:03.666Z,8.00
2022-09-15T04:57:35.840Z,8.00
2022-09-15T05:00:08.635Z,10.50
2022-09-15T05:02:41.706Z,11.00
2022-09-15T05:05:12.374Z,9.50
2022-09-15T05:07:42.892Z,9.00
2022-09-15T05:10:14.453Z,12.00
2022-09-15T05:12:46.597Z,9.75
2022-09-15T05:15:18.263Z,10.00
2022-09-15T05:17:54.641Z,7.25
2022-09-15T05:20:26.457Z,10.75
2022-09-15T05:22:58.188Z,8.75
2022-09-15T05:25:31.766Z,9.25
2022-09-15T05:28:00.992Z,7.75
2022-09-15T05:30:39.618Z,10.50
2022-09-15T05:33:09.732Z,11.25
2022-09-15T05:35:52.710Z,9.00
2022-09-15T05:38:25.124Z,10.50
2022-09-15T05:41:00.928Z,4.25
2022-09-15T05:43:33.910Z,11.75
2022-09-15T05:46:05.747Z,9.75
2022-09-15T05:48:38.551Z,9.00
2022-09-15T05:51:10.618Z,9.75
2022-09-15T05:53:41.934Z,9.50
2022-09-15T05:56:17.827Z,11.25
2022-09-15T05:58:51.318Z,12.25
2022-09-15T06:01:26.834Z,13.00
2022-09-15T06:03:58.504Z,10.25
2022-09-15T06:06:28.766Z,15.50
2022-09-15T06:09:03.595Z,13.00
2022-09-15T06:11:35.352Z,12.50
2022-09-15T06:14:07.111Z,13.00
2022-09-15T06:16:40.201Z,12.00
2022-09-15T06:19:12.413Z,13.75
2022-09-15T06:21:44.685Z,11.75
2022-09-15T06:24:15.954Z,13.50
2022-09-15T06:26:46.053Z,11.25
2022-09-15T06:29:16.257Z,9.50
2022-09-15T06:31:45.594Z,11.25
2022-09-15T06:34:15.549Z,11.25
2022-09-15T06:36:45.066Z,9.75
2022-09-15T06:39:18.489Z,9.00
2022-09-15T06:42:05.875Z,11.00
2022-09-15T06:44:38.170Z,12.50
2022-09-15T06:47:08.820Z,10.00
2022-09-15T06:49:39.506Z,10.00
2022-09-15T06:52:10.189Z,9.75
2022-09-15T06:54:40.359Z,11.50
2022-09-15T06:57:12.150Z,10.25
2022-09-15T06:59:42.302Z,11.25
2022-09-15T07:02:13.084Z,9.00
2022-09-15T07:04:42.588Z,10.50
2022-09-15T07:07:13.811Z,8.50
2022-09-15T07:09:48.827Z,9.25
2022-09-15T07:12:21.317Z,11.50
2022-09-15T07:14:51.808Z,7.25
2022-09-15T07:17:23.713Z,6.25
2022-09-15T07:20:01.837Z,11.75
2022-09-15T07:22:31.308Z,9.50
2022-09-15T07:25:02.345Z,9.00
2022-09-15T07:27:32.638Z,8.25
2022-09-15T07:30:04.625Z,11.00
2022-09-15T07:32:40.817Z,11.25
2022-09-15T07:35:13.275Z,10.50
2022-09-15T07:37:46.156Z,10.75
2022-09-15T07:40:16.644Z,9.25
2022-09-15T07:42:47.287Z,10.25
2022-09-15T07:45:18.634Z,10.50
2022-09-15T07:47:49.077Z,7.50
2022-09-15T07:50:20.981Z,12.25
2022-09-15T07:52:51.778Z,11.25
2022-09-15T07:55:31.798Z,10.25
2022-09-15T07:58:01.821Z,11.25
2022-09-15T08:00:33.587Z,14.00
2022-09-15T08:03:05.391Z,12.25
2022-09-15T08:05:44.806Z,11.00
2022-09-15T08:08:17.733Z,14.50
2022-09-15T08:10:49.774Z,12.50
2022-09-15T08:13:21.964Z,10.25
2022-09-15T08:15:53.487Z,11.67
2022-09-15T08:18:25.982Z,12.00
2022-09-15T08:20:56.530Z,11.25
2022-09-15T08:23:26.770Z,13.50
2022-09-15T08:25:56.943Z,13.00
2022-09-15T08:28:27.944Z,13.25
2022-09-15T08:31:06.192Z,16.00
2022-09-15T08:33:36.622Z,12.00
2022-09-15T08:36:12.169Z,13.25
2022-09-15T08:38:43.089Z,12.00
2022-09-15T08:41:28.750Z,13.25
2022-09-15T08:44:17.364Z,14.50
2022-09-15T08:46:55.583Z,14.25
2022-09-15T08:50:00.655Z,12.75
2022-09-15T08:53:02.529Z,13.50
2022-09-15T08:55:54.046Z,12.75
2022-09-15T08:58:31.376Z,12.75
2022-09-15T09:01:04.107Z,14.50
2022-09-15T09:03:40.865Z,10.25
2022-09-15T09:06:22.617Z,13.25
2022-09-15T09:09:26.726Z,11.50
2022-09-15T09:12:20.293Z,12.25
2022-09-15T09:15:10.271Z,9.25
2022-09-15T09:18:17.963Z,12.75
2022-09-15T09:20:54.027Z,15.00
2022-09-15T09:23:29.907Z,14.25
2022-09-15T09:26:03.598Z,11.50
2022-09-15T09:28:56.371Z,14.75
2022-09-15T09:31:28.110Z,14.25
2022-09-15T09:34:36.128Z,16.00
2022-09-15T09:37:22.816Z,12.25
2022-09-15T09:39:53.404Z,16.50
2022-09-15T09:42:32.476Z,17.00
2022-09-15T09:45:02.006Z,15.50
2022-09-15T09:47:36.231Z,16.00
2022-09-15T09:50:08.219Z,15.25
2022-09-15T09:52:41.475Z,15.00
2022-09-15T09:55:21.632Z,14.25
2022-09-15T09:57:53.285Z,16.25
2022-09-15T10:00:41.450Z,14.75
2022-09-15T10:03:20.702Z,15.50
2022-09-15T10:06:05.641Z,16.25
2022-09-15T10:08:37.908Z,12.75
2022-09-15T10:11:12.423Z,18.00
2022-09-15T10:13:55.822Z,15.50
2022-09-15T10:16:27.555Z,15.50
2022-09-15T10:19:04.129Z,16.00
2022-09-15T10:21:34.289Z,11.25
2022-09-15T10:24:34.418Z,13.75
2022-09-15T10:27:27.491Z,16.00
2022-09-15T10:30:00.660Z,17.33
2022-09-15T10:32:33.414Z,13.67
2022-09-15T10:35:06.926Z,18.00
2022-09-15T10:37:51.881Z,17.00
2022-09-15T10:40:42.811Z,15.33
2022-09-15T10:43:37.242Z,15.67
2022-09-15T10:46:29.834Z,17.00
2022-09-15T10:49:21.897Z,18.33
2022-09-15T10:52:38.996Z,15.00
2022-09-15T10:55:51.727Z,15.00
2022-09-15T10:58:45.811Z,15.00
2022-09-15T11:01:32.314Z,18.00
2022-09-15T11:04:21.748Z,13.00
2022-09-15T11:07:18.496Z,17.67
2022-09-15T11:10:11.859Z,15.33
2022-09-15T11:13:02.318Z,18.00
2022-09-15T11:15:45.098Z,14.67
2022-09-15T11:18:40.108Z,18.33
2022-09-15T11:21:36.142Z,16.00
2022-09-15T11:24:18.091Z,18.00
2022-09-15T11:27:03.923Z,17.67
2022-09-15T11:29:44.553Z,18.33
2022-09-15T11:32:27.040Z,16.67
2022-09-15T11:35:01.653Z,16.00
2022-09-15T11:37:43.506Z,20.33
2022-09-15T11:40:20.074Z,17.67
2022-09-15T11:43:13.294Z,18.00
2022-09-15T11:45:48.706Z,17.33
2022-09-15T11:48:48.476Z,18.33
2022-09-15T11:51:22.286Z,19.33
2022-09-15T11:54:21.960Z,20.00
2022-09-15T11:56:56.101Z,15.33
2022-09-15T12:00:03.080Z,16.33
2022-09-15T12:02:35.548Z,13.67
2022-09-15T12:05:30.942Z,20.33
2022-09-15T12:08:26.813Z,18.00
2022-09-15T12:11:02.343Z,19.67
2022-09-15T12:13:34.658Z,19.67
2022-09-15T12:16:07.509Z,19.33
2022-09-15T12:19:12.619Z,23.33
2022-09-15T12:21:53.809Z,20.33
2022-09-15T12:24:58.882Z,16.67
2022-09-15T12:27:30.708Z,20.67
2022-09-15T12:30:03.776Z,19.00
2022-09-15T12:32:36.270Z,22.00
2022-09-15T12:35:25.630Z,23.00
2022-09-15T12:37:57.837Z,17.75
2022-09-15T12:40:28.862Z,20.67
2022-09-15T12:43:24.226Z,23.00
2022-09-15T12:45:59.944Z,20.00
2022-09-15T12:48:38.606Z,22.00
2022-09-15T12:51:13.822Z,21.33
2022-09-15T12:53:55.815Z,21.00
2022-09-15T12:56:30.662Z,23.67
2022-09-15T12:59:09.133Z,20.00
2022-09-15T13:01:52.124Z,17.67
2022-09-15T13:04:47.015Z,20.67
2022-09-15T13:07:19.251Z,20.00
2022-09-15T13:10:01.683Z,23.67
2022-09-15T13:12:40.348Z,19.33
2022-09-15T13:15:18.033Z,20.33
2022-09-15T13:17:50.044Z,19.00
2022-09-15T13:20:30.951Z,18.67
2022-09-15T13:23:02.958Z,20.00
2022-09-15T13:25:40.061Z,16.33
2022-09-15T13:31:07.166Z,16.00
2022-09-15T13:40:30.912Z,17.00
2022-09-15T13:43:30.167Z,19.33
2022-09-15T13:46:40.775Z,16.00
2022-09-15T13:49:31.336Z,18.33
2022-09-15T13:52:16.146Z,20.33
2022-09-15T13:55:10.782Z,16.33
2022-09-15T14:00:59.398Z,18.00
2022-09-15T14:03:55.654Z,19.00
2022-09-15T14:06:31.548Z,19.00
2022-09-15T14:09:16.780Z,20.00
2022-09-15T14:11:52.545Z,17.25
2022-09-15T14:14:37.684Z,19.50
2022-09-15T14:17:19.684Z,16.50
2022-09-15T14:19:55.081Z,19.33
2022-09-15T14:22:32.007Z,18.67
2022-09-15T14:25:16.184Z,20.00
2022-09-15T14:27:54.637Z,14.50
2022-09-15T14:30:28.321Z,15.50
2022-09-15T14:33:01.643Z,16.50
2022-09-15T14:35:39.499Z,16.75
2022-09-15T14:38:20.103Z,18.75
2022-09-15T14:40:55.862Z,12.25
2022-09-15T14:43:33.647Z,15.75
2022-09-15T14:46:21.592Z,15.50
2022-09-15T14:48:53.035Z,18.25
2022-09-15T14:51:27.028Z,17.75
2022-09-15T14:54:01.034Z,16.25
2022-09-15T14:56:36.289Z,14.75
2022-09-15T14:59:18.018Z,15.25
2022-09-15T15:01:59.324Z,14.25
2022-09-15T15:04:42.929Z,18.50
2022-09-15T15:07:23.370Z,15.75
2022-09-15T15:10:16.923Z,16.50
2022-09-15T15:13:19.789Z,15.50
2022-09-15T15:15:52.410Z,20.50
2022-09-15T15:18:39.988Z,16.75
2022-09-15T15:21:40.934Z,17.50
2022-09-15T15:24:24.803Z,17.25
2022-09-15T15:26:59.690Z,14.00
2022-09-15T15:29:46.585Z,17.25
2022-09-15T15:32:24.670Z,14.75
2022-09-15T15:35:08.474Z,17.75
2022-09-15T15:37:37.882Z,15.25
2022-09-15T15:40:23.974Z,18.00
2022-09-15T15:43:26.653Z,15.50
2022-09-15T15:46:04.485Z,14.25
2022-09-15T15:48:40.278Z,15.25
2022-09-15T15:51:10.932Z,12.75
2022-09-15T15:53:41.145Z,14.50
2022-09-15T15:56:16.665Z,14.75
2022-09-15T15:58:47.199Z,15.75
2022-09-15T16:01:17.025Z,14.25
2022-09-15T16:03:49.235Z,16.00
2022-09-15T16:06:19.785Z,14.00
2022-09-15T16:08:50.099Z,12.75
2022-09-15T16:11:22.845Z,15.75
2022-09-15T16:13:55.056Z,13.00
2022-09-15T16:16:29.011Z,14.25
2022-09-15T16:19:00.542Z,14.00
2022-09-15T16:21:38.193Z,13.25
2022-09-15T16:24:11.351Z,11.25
2022-09-15T16:26:42.114Z,14.75
2022-09-15T16:29:14.189Z,10.25
2022-09-15T16:31:44.287Z,14.75
2022-09-15T16:34:21.192Z,13.75
2022-09-15T16:36:53.069Z,15.00
2022-09-15T16:39:22.619Z,14.00
2022-09-15T16:41:54.844Z,13.50
2022-09-15T16:44:25.363Z,14.00
2022-09-15T16:46:59.301Z,15.00
2022-09-15T16:49:30.806Z,12.75
2022-09-15T16:52:04.822Z,14.00
2022-09-15T16:54:38.057Z,14.00
2022-09-15T16:57:08.479Z,14.75
2022-09-15T16:59:38.233Z,12.00
2022-09-15T17:02:15.652Z,13.00
2022-09-15T17:04:47.714Z,12.75
2022-09-15T17:07:18.485Z,14.00
2022-09-15T17:09:51.139Z,15.00
2022-09-15T17:12:23.257Z,10.75
2022-09-15T17:14:53.309Z,13.25
2022-09-15T17:17:26.521Z,13.25
2022-09-15T17:19:56.261Z,13.50
2022-09-15T17:22:29.255Z,12.50
2022-09-15T17:25:01.340Z,13.00
2022-09-15T17:27:33.221Z,10.00
2022-09-15T17:30:04.160Z,11.75
2022-09-15T17:32:34.974Z,12.00
2022-09-15T17:35:23.571Z,11.25
2022-09-15T17:37:54.937Z,10.75
2022-09-15T17:40:24.758Z,13.50
2022-09-15T17:42:55.430Z,12.00
2022-09-15T17:45:29.597Z,11.75
2022-09-15T17:48:00.482Z,12.00
2022-09-15T17:50:39.433Z,13.00
2022-09-15T17:53:29.663Z,11.25
2022-09-15T17:56:00.330Z,14.75
2022-09-15T17:58:32.273Z,14.25
2022-09-15T18:01:03.187Z,12.50
2022-09-15T18:03:38.938Z,12.75
2022-09-15T18:06:11.449Z,14.00
2022-09-15T18:08:43.083Z,13.00
2022-09-15T18:11:16.280Z,12.25
2022-09-15T18:13:47.126Z,12.00
2022-09-15T18:16:18.403Z,12.50
2022-09-15T18:18:48.452Z,13.75
2022-09-15T18:21:31.409Z,9.75
2022-09-15T18:24:00.935Z,13.25
2022-09-15T18:26:31.365Z,12.50
2022-09-15T18:29:03.641Z,12.75
2022-09-15T18:31:34.531Z,10.00
2022-09-15T18:34:05.795Z,15.25
2022-09-15T18:36:40.631Z,10.25
2022-09-15T18:39:14.415Z,12.00
2022-09-15T18:41:50.376Z,11.50
2022-09-15T18:44:21.692Z,13.00
2022-09-15T18:46:52.864Z,11.50
2022-09-15T18:49:22.748Z,13.25
2022-09-15T18:51:53.706Z,7.50
2022-09-15T18:54:24.297Z,12.00
2022-09-15T18:57:03.384Z,9.50
2022-09-15T18:59:34.560Z,13.00
2022-09-15T19:02:08.420Z,10.25
2022-09-15T19:04:40.691Z,11.75
2022-09-15T19:07:14.334Z,11.25
2022-09-15T19:09:46.093Z,13.00
2022-09-15T19:12:17.041Z,7.25
2022-09-15T19:14:47.444Z,10.00
2022-09-15T19:17:23.031Z,13.50
2022-09-15T19:19:55.228Z,12.25
2022-09-15T19:22:25.807Z,11.50
2022-09-15T19:24:56.097Z,9.50
2022-09-15T19:27:26.958Z,11.00
2022-09-15T19:29:58.951Z,11.00
2022-09-15T19:32:29.120Z,10.75
2022-09-15T19:34:59.101Z,10.25
2022-09-15T19:37:31.565Z,9.00
2022-09-15T19:40:10.974Z,11.75
2022-09-15T19:42:43.322Z,10.25
2022-09-15T19:45:16.121Z,11.00
2022-09-15T19:47:52.584Z,11.25
2022-09-15T19:50:26.528Z,11.75
2022-09-15T19:52:59.606Z,10.80
2022-09-15T19:55:30.634Z,10.40
2022-09-15T19:58:00.492Z,11.80
2022-09-15T20:00:34.577Z,10.80
2022-09-15T20:03:05.537Z,10.80
2022-09-15T20:05:39.493Z,8.40
2022-09-15T20:08:12.733Z,13.80
2022-09-15T20:10:42.792Z,10.75
2022-09-15T20:13:17.544Z,11.00
2022-09-15T20:16:02.195Z,10.00
2022-09-15T20:18:34.521Z,11.00
2022-09-15T20:21:08.438Z,12.00
2022-09-15T20:23:39.008Z,11.00
2022-09-15T20:26:12.776Z,12.80
2022-09-15T20:28:43.282Z,12.40
2022-09-15T20:31:26.394Z,10.60
2022-09-15T20:33:56.792Z,12.20
2022-09-15T20:36:33.779Z,12.20
2022-09-15T20:39:05.623Z,10.60
2022-09-15T20:41:39.132Z,9.00
2022-09-15T20:44:27.853Z,9.00
2022-09-15T20:47:00.752Z,10.00
2022-09-15T20:49:34.499Z,11.00
2022-09-15T20:52:05.640Z,11.60
2022-09-15T20:54:40.636Z,11.60
2022-09-15T20:57:12.734Z,12.00
2022-09-15T20:59:44.309Z,10.20
2022-09-15T21:02:17.561Z,13.60
2022-09-15T21:04:49.188Z,11.60
2022-09-15T21:07:19.247Z,9.80
2022-09-15T21:09:50.363Z,11.40
2022-09-15T21:12:20.923Z,14.00
2022-09-15T21:14:51.086Z,11.20
2022-09-15T21:17:28.041Z,13.20
2022-09-15T21:20:40.185Z,11.40
2022-09-15T21:23:20.946Z,13.60
2022-09-15T21:26:01.930Z,11.60
2022-09-15T21:28:32.210Z,12.40
2022-09-15T21:31:10.717Z,11.80
2022-09-15T21:33:40.911Z,12.40
2022-09-15T21:36:23.446Z,11.60
2022-09-15T21:38:57.193Z,12.60
2022-09-15T21:41:33.928Z,10.20
2022-09-15T21:44:04.663Z,10.20
2022-09-15T21:46:35.235Z,11.40
2022-09-15T21:49:05.089Z,10.20
2022-09-15T21:51:37.575Z,13.00
2022-09-15T21:54:07.915Z,10.80
2022-09-15T21:56:42.199Z,11.60
2022-09-15T21:59:12.670Z,11.20
2022-09-15T22:01:43.526Z,13.00
2022-09-15T22:04:15.344Z,11.80
2022-09-15T22:06:46.231Z,10.80
2022-09-15T22:09:19.116Z,12.00
2022-09-15T22:11:50.465Z,11.20
2022-09-15T22:14:22.971Z,10.60
2022-09-15T22:16:54.482Z,11.80
2022-09-15T22:19:24.976Z,12.40
2022-09-15T22:21:54.962Z,11.00
2022-09-15T22:24:32.045Z,12.00
2022-09-15T22:27:01.741Z,11.20
2022-09-15T22:29:32.117Z,11.40
2022-09-15T22:32:06.269Z,12.80
2022-09-15T22:34:42.548Z,10.60
2022-09-15T22:37:11.991Z,12.80
2022-09-15T22:39:58.511Z,14.00
2022-09-15T22:42:29.374Z,12.40
2022-09-15T22:45:01.618Z,11.80
2022-09-15T22:47:35.233Z,11.20
2022-09-15T22:50:05.341Z,11.00
2022-09-15T22:52:36.952Z,15.00
2022-09-15T22:55:10.393Z,12.40
2022-09-15T22:57:44.711Z,12.20
2022-09-15T23:00:16.700Z,14.20
2022-09-15T23:02:50.388Z,12.00
2022-09-15T23:05:21.465Z,11.00
2022-09-15T23:07:51.559Z,12.20
2022-09-15T23:10:20.959Z,12.00
2022-09-15T23:12:51.302Z,10.40
2022-09-15T23:15:21.125Z,5.40
2022-09-15T23:17:52.742Z,14.20
2022-09-15T23:20:22.937Z,11.80
2022-09-15T23:22:54.447Z,11.20
2022-09-15T23:25:25.052Z,10.20
2022-09-15T23:27:55.417Z,12.80
2022-09-15T23:30:25.069Z,11.60
2022-09-15T23:32:59.707Z,11.00
2022-09-15T23:35:28.878Z,11.00
2022-09-15T23:38:01.330Z,9.00
2022-09-15T23:40:31.448Z,9.40
2022-09-15T23:43:01.528Z,10.00
2022-09-15T23:45:31.998Z,9.60
2022-09-15T23:48:03.490Z,10.00
2022-09-15T23:50:34.815Z,9.20
2022-09-15T23:53:06.726Z,10.40
2022-09-15T23:55:44.461Z,9.20
2022-09-15T23:58:16.546Z,10.00
